TimeEDT,TemperatureF,Dew PointF,Humidity,Sea Level PressureIn,VisibilityMPH,Wind Direction,Wind SpeedMPH,Gust SpeedMPH,PrecipitationIn,Events,Conditions,WindDirDegrees,DateUTC
12:15 AM,32.0,29.3,90,29.84,7.0,Calm,Calm,-,N/A,,Overcast,0,2013-04-13 04:15:00
12:35 AM,32.0,29.3,90,29.84,1.8,Calm,Calm,-,N/A,Snow,Light Snow,0,2013-04-13 04:35:00
12:55 AM,32.0,29.3,90,29.84,4.0,Calm,Calm,-,N/A,Rain,Light Rain,0,2013-04-13 04:55:00
1:15 AM,32.0,29.5,90,29.84,4.0,Calm,Calm,-,N/A,Snow,Light Snow,0,2013-04-13 05:15:00
1:35 AM,32.0,29.7,91,29.82,7.0,Calm,Calm,-,N/A,,Overcast,0,2013-04-13 05:35:00
1:55 AM,32.0,29.7,91,29.79,7.0,Calm,Calm,-,N/A,,Overcast,0,2013-04-13 05:55:00
2:15 AM,32.0,29.7,91,29.80,5.0,Calm,Calm,-,N/A,Snow,Light Snow,0,2013-04-13 06:15:00
2:35 AM,32.0,29.7,91,29.82,5.0,Calm,Calm,-,N/A,Snow,Light Snow,0,2013-04-13 06:35:00
2:55 AM,32.0,29.8,92,29.81,5.0,Calm,Calm,-,N/A,Snow,Light Snow,0,2013-04-13 06:55:00
3:15 AM,32.0,29.5,90,29.80,3.0,SSE,3.5,-,N/A,Snow,Light Snow,160,2013-04-13 07:15:00
3:35 AM,32.0,29.3,90,29.81,3.0,Calm,Calm,-,N/A,Rain,Light Rain,0,2013-04-13 07:35:00
3:55 AM,31.8,29.3,90,29.80,5.0,SSE,3.5,-,N/A,,Overcast,150,2013-04-13 07:55:00
4:15 AM,31.8,29.3,90,29.79,10.0,Calm,Calm,-,N/A,,Overcast,0,2013-04-13 08:15:00
4:35 AM,31.6,29.3,91,29.79,10.0,Calm,Calm,-,N/A,,Overcast,0,2013-04-13 08:35:00
4:55 AM,31.8,29.3,90,29.79,10.0,Calm,Calm,-,N/A,,Overcast,0,2013-04-13 08:55:00
5:15 AM,31.8,29.3,90,29.79,10.0,Calm,Calm,-,N/A,,Overcast,0,2013-04-13 09:15:00
5:35 AM,32.0,29.7,91,29.78,10.0,Calm,Calm,-,N/A,,Overcast,0,2013-04-13 09:35:00
5:55 AM,31.8,29.3,90,29.79,10.0,Calm,Calm,-,N/A,,Overcast,0,2013-04-13 09:55:00
6:15 AM,31.8,29.3,90,29.79,10.0,Calm,Calm,-,N/A,,Overcast,0,2013-04-13 10:15:00
6:35 AM,31.8,29.3,90,29.79,7.0,SE,3.5,-,N/A,,Overcast,130,2013-04-13 10:35:00
6:55 AM,32.0,29.7,91,29.80,10.0,Calm,Calm,-,N/A,,Overcast,0,2013-04-13 10:55:00
7:15 AM,32.0,29.7,91,29.80,10.0,Calm,Calm,-,N/A,,Overcast,0,2013-04-13 11:15:00
7:35 AM,32.0,29.5,90,29.81,10.0,Calm,Calm,-,N/A,,Overcast,0,2013-04-13 11:35:00
7:55 AM,32.0,29.8,92,29.81,10.0,Calm,Calm,-,N/A,,Overcast,0,2013-04-13 11:55:00
8:15 AM,32.0,29.7,91,29.81,5.0,Calm,Calm,-,N/A,,Overcast,0,2013-04-13 12:15:00
8:35 AM,32.0,29.8,92,29.81,3.0,Calm,Calm,-,N/A,Rain,Light Rain,0,2013-04-13 12:35:00
8:55 AM,32.0,30.0,92,29.81,2.0,SE,3.5,-,N/A,Snow,Light Snow,140,2013-04-13 12:55:00
9:15 AM,32.0,30.0,92,29.81,4.0,Calm,Calm,-,N/A,,Overcast,0,2013-04-13 13:15:00
9:35 AM,32.4,30.2,92,29.81,7.0,Calm,Calm,-,N/A,,Overcast,0,2013-04-13 13:35:00
9:55 AM,32.5,30.2,91,29.81,10.0,South,3.5,-,N/A,,Overcast,170,2013-04-13 13:55:00
10:15 AM,32.9,30.2,90,29.81,10.0,SSE,3.5,-,N/A,,Overcast,150,2013-04-13 14:15:00
10:35 AM,32.9,30.2,90,29.81,10.0,SE,3.5,-,N/A,,Overcast,140,2013-04-13 14:35:00
10:55 AM,33.3,30.2,89,29.81,10.0,South,3.5,-,N/A,,Overcast,180,2013-04-13 14:55:00
11:15 AM,33.4,30.2,88,29.81,10.0,South,4.6,-,N/A,,Overcast,170,2013-04-13 15:15:00
11:35 AM,34.0,31.1,89,29.82,10.0,SSE,4.6,-,N/A,,Overcast,160,2013-04-13 15:35:00
11:55 AM,34.2,31.1,89,29.82,10.0,South,4.6,-,N/A,,Overcast,180,2013-04-13 15:55:00
12:15 PM,35.1,31.8,88,29.82,10.0,South,3.5,-,N/A,,Overcast,170,2013-04-13 16:15:00
12:35 PM,35.2,31.6,87,29.82,10.0,SSE,3.5,-,N/A,,Overcast,160,2013-04-13 16:35:00
12:55 PM,36.0,31.8,85,29.81,10.0,Calm,Calm,-,N/A,,Overcast,0,2013-04-13 16:55:00
1:15 PM,36.1,32.0,85,29.81,10.0,Calm,Calm,-,N/A,,Overcast,0,2013-04-13 17:15:00
1:35 PM,38.1,32.7,81,29.81,10.0,East,4.6,-,N/A,,Overcast,90,2013-04-13 17:35:00
1:55 PM,38.3,32.5,80,29.81,10.0,Calm,Calm,-,N/A,,Overcast,0,2013-04-13 17:55:00
2:15 PM,38.7,32.9,80,29.80,10.0,Calm,Calm,-,N/A,,Overcast,0,2013-04-13 18:15:00
2:35 PM,40.3,33.3,76,29.79,10.0,Calm,Calm,-,N/A,,Overcast,0,2013-04-13 18:35:00
2:55 PM,41.0,33.3,74,29.80,10.0,Calm,Calm,-,N/A,,Overcast,0,2013-04-13 18:55:00
3:15 PM,42.1,34.2,74,29.79,10.0,Calm,Calm,-,N/A,,Overcast,0,2013-04-13 19:15:00
3:35 PM,42.8,34.7,73,29.78,10.0,East,3.5,-,N/A,,Overcast,90,2013-04-13 19:35:00
3:55 PM,42.6,34.2,72,29.78,10.0,Calm,Calm,-,N/A,,Overcast,0,2013-04-13 19:55:00
4:15 PM,42.4,34.0,72,29.78,10.0,Calm,Calm,-,N/A,,Overcast,0,2013-04-13 20:15:00
4:35 PM,42.8,34.3,72,29.78,10.0,Calm,Calm,-,N/A,,Overcast,0,2013-04-13 20:35:00
4:55 PM,42.4,34.7,74,29.79,10.0,Calm,Calm,-,N/A,,Overcast,0,2013-04-13 20:55:00
5:15 PM,42.1,34.3,74,29.80,10.0,Calm,Calm,-,N/A,,Overcast,0,2013-04-13 21:15:00
5:35 PM,42.3,34.3,74,29.80,10.0,Calm,Calm,-,N/A,,Overcast,0,2013-04-13 21:35:00
5:55 PM,42.1,34.0,73,29.81,10.0,Calm,Calm,-,N/A,,Overcast,0,2013-04-13 21:55:00
6:15 PM,41.2,35.1,79,29.83,10.0,West,3.5,-,N/A,,Light Drizzle,270,2013-04-13 22:15:00
6:35 PM,40.5,35.8,83,29.84,7.0,West,4.6,-,N/A,Rain,Rain,280,2013-04-13 22:35:00
6:55 PM,39.9,35.8,85,29.84,5.0,Calm,Calm,-,N/A,,Drizzle,0,2013-04-13 22:55:00
7:15 PM,39.6,36.1,88,29.84,7.0,Calm,Calm,-,N/A,,Light Drizzle,0,2013-04-13 23:15:00
7:35 PM,39.4,35.2,85,29.85,10.0,Calm,Calm,-,N/A,Rain,Rain,0,2013-04-13 23:35:00
7:55 PM,38.8,35.6,88,29.86,10.0,Calm,Calm,-,N/A,,Light Drizzle,0,2013-04-13 23:55:00
8:15 PM,38.7,35.6,89,29.85,10.0,East,4.6,-,N/A,,Light Drizzle,80,2013-04-14 00:15:00
8:35 PM,38.7,35.8,89,29.86,4.0,Calm,Calm,-,N/A,,Overcast,0,2013-04-14 00:35:00
8:55 PM,38.7,36.0,90,29.86,0.8,Calm,Calm,-,N/A,,Overcast,0,2013-04-14 00:55:00
9:15 PM,37.8,35.2,91,29.87,4.0,WSW,4.6,-,N/A,Rain,Light Rain,240,2013-04-14 01:15:00
9:35 PM,37.4,34.7,90,29.88,5.0,West,3.5,-,N/A,Rain,Light Rain,280,2013-04-14 01:35:00
9:55 PM,36.9,34.3,91,29.90,7.0,West,9.2,-,N/A,Rain,Light Rain,270,2013-04-14 01:55:00
10:15 PM,35.8,33.1,90,29.89,7.0,WNW,3.5,-,N/A,Rain,Light Rain,290,2013-04-14 02:15:00
10:55 PM,35.2,32.5,90,29.89,10.0,Calm,Calm,-,N/A,,Overcast,0,2013-04-14 02:55:00
11:15 PM,35.1,32.4,90,29.88,10.0,Calm,Calm,-,N/A,,Overcast,0,2013-04-14 03:15:00
11:35 PM,35.8,33.1,90,29.88,10.0,ESE,3.5,-,N/A,,Overcast,120,2013-04-14 03:35:00
11:55 PM,35.2,32.4,89,29.88,10.0,Calm,Calm,-,N/A,,Overcast,0,2013-04-14 03:55:00